sensor_id;sensor_type;location;lat;lon;timestamp;pressure;altitude;pressure_sealevel;temperature
30765;BMP180;494;48.744;10.106;2023-09-19T00:27:34;95417.00;;;18.30
30765;BMP180;494;48.744;10.106;2023-09-19T00:30:55;94891.00;;;18.30
30765;BMP180;494;48.744;10.106;2023-09-19T00:34:06;95442.00;;;18.30
30765;BMP180;494;48.744;10.106;2023-09-19T00:37:16;94761.00;;;18.30
30765;BMP180;494;48.744;10.106;2023-09-19T00:40:07;95353.00;;;18.40
30765;BMP180;494;48.744;10.106;2023-09-19T00:43:21;94873.00;;;18.40
30765;BMP180;494;48.744;10.106;2023-09-19T00:45:57;94932.00;;;17.10
30765;BMP180;494;48.744;10.106;2023-09-19T00:48:57;95437.00;;;17.90
30765;BMP180;494;48.744;10.106;2023-09-19T00:52:20;95187.00;;;18.40
30765;BMP180;494;48.744;10.106;2023-09-19T01:49:59;95387.00;;;18.10
30765;BMP180;494;48.744;10.106;2023-09-19T01:52:56;95235.00;;;17.80
30765;BMP180;494;48.744;10.106;2023-09-19T01:55:49;95104.00;;;18.20
30765;BMP180;494;48.744;10.106;2023-09-19T01:58:30;95509.00;;;18.30
30765;BMP180;494;48.744;10.106;2023-09-19T02:01:19;95418.00;;;18.40
30765;BMP180;494;48.744;10.106;2023-09-19T02:04:39;95225.00;;;16.90
30765;BMP180;494;48.744;10.106;2023-09-19T03:04:50;95334.00;;;18.80
30765;BMP180;494;48.744;10.106;2023-09-19T03:07:48;95040.00;;;18.70
30765;BMP180;494;48.744;10.106;2023-09-19T03:10:33;94947.00;;;18.70
30765;BMP180;494;48.744;10.106;2023-09-19T03:13:45;95095.00;;;18.60
30765;BMP180;494;48.744;10.106;2023-09-19T03:16:35;95485.00;;;18.00
30765;BMP180;494;48.744;10.106;2023-09-19T03:19:24;95443.00;;;16.70
30765;BMP180;494;48.744;10.106;2023-09-19T03:26:26;95204.00;;;16.30
30765;BMP180;494;48.744;10.106;2023-09-19T03:29:24;95486.00;;;18.20
30765;BMP180;494;48.744;10.106;2023-09-19T03:32:24;95335.00;;;18.20
30765;BMP180;494;48.744;10.106;2023-09-19T03:35:48;95464.00;;;18.10
30765;BMP180;494;48.744;10.106;2023-09-19T03:39:13;95393.00;;;18.20
30765;BMP180;494;48.744;10.106;2023-09-19T03:42:28;95310.00;;;18.10
30765;BMP180;494;48.744;10.106;2023-09-19T03:45:27;95528.00;;;18.10
30765;BMP180;494;48.744;10.106;2023-09-19T03:48:29;95531.00;;;18.10
30765;BMP180;494;48.744;10.106;2023-09-19T03:51:06;95464.00;;;17.70
30765;BMP180;494;48.744;10.106;2023-09-19T03:53:55;94995.00;;;18.00
30765;BMP180;494;48.744;10.106;2023-09-19T03:56:56;95470.00;;;18.10
30765;BMP180;494;48.744;10.106;2023-09-19T04:00:27;95472.00;;;18.00
30765;BMP180;494;48.744;10.106;2023-09-19T04:03:27;95477.00;;;17.90
30765;BMP180;494;48.744;10.106;2023-09-19T04:06:37;95281.00;;;18.20
30765;BMP180;494;48.744;10.106;2023-09-19T04:10:11;95452.00;;;18.10
30765;BMP180;494;48.744;10.106;2023-09-19T04:13:27;95509.00;;;18.20
30765;BMP180;494;48.744;10.106;2023-09-19T04:23:58;95033.00;;;18.20
30765;BMP180;494;48.744;10.106;2023-09-19T04:26:46;95525.00;;;18.20
30765;BMP180;494;48.744;10.106;2023-09-19T04:30:32;95275.00;;;17.30
30765;BMP180;494;48.744;10.106;2023-09-19T04:33:56;95395.00;;;18.30
30765;BMP180;494;48.744;10.106;2023-09-19T04:36:56;95041.00;;;17.90
30765;BMP180;494;48.744;10.106;2023-09-19T04:44:14;95263.00;;;18.40
30765;BMP180;494;48.744;10.106;2023-09-19T04:47:16;95479.00;;;17.90
30765;BMP180;494;48.744;10.106;2023-09-19T04:50:16;95373.00;;;18.40
30765;BMP180;494;48.744;10.106;2023-09-19T04:53:11;95510.00;;;18.40
30765;BMP180;494;48.744;10.106;2023-09-19T04:55:54;95493.00;;;18.40
30765;BMP180;494;48.744;10.106;2023-09-19T04:58:57;95387.00;;;17.90
30765;BMP180;494;48.744;10.106;2023-09-19T05:02:20;95553.00;;;18.50
30765;BMP180;494;48.744;10.106;2023-09-19T05:05:37;95505.00;;;18.00
30765;BMP180;494;48.744;10.106;2023-09-19T05:08:24;95528.00;;;18.30
30765;BMP180;494;48.744;10.106;2023-09-19T05:10:55;95512.00;;;18.10
30765;BMP180;494;48.744;10.106;2023-09-19T05:13:42;95514.00;;;17.70
30765;BMP180;494;48.744;10.106;2023-09-19T05:16:14;95526.00;;;18.00
30765;BMP180;494;48.744;10.106;2023-09-19T05:19:01;95534.00;;;17.50
30765;BMP180;494;48.744;10.106;2023-09-19T05:21:33;95530.00;;;18.50
30765;BMP180;494;48.744;10.106;2023-09-19T05:24:03;95535.00;;;18.50
30765;BMP180;494;48.744;10.106;2023-09-19T05:26:37;95422.00;;;17.60
30765;BMP180;494;48.744;10.106;2023-09-19T05:29:07;95425.00;;;17.80
30765;BMP180;494;48.744;10.106;2023-09-19T05:31:40;95529.00;;;18.20
30765;BMP180;494;48.744;10.106;2023-09-19T05:34:18;95417.00;;;18.40
30765;BMP180;494;48.744;10.106;2023-09-19T05:36:48;95454.00;;;17.50
30765;BMP180;494;48.744;10.106;2023-09-19T05:39:17;95583.00;;;18.40
30765;BMP180;494;48.744;10.106;2023-09-19T05:42:21;95173.00;;;17.90
30765;BMP180;494;48.744;10.106;2023-09-19T05:45:17;95576.00;;;18.30
30765;BMP180;494;48.744;10.106;2023-09-19T05:47:53;95431.00;;;18.50
30765;BMP180;494;48.744;10.106;2023-09-19T05:50:41;95405.00;;;18.50
30765;BMP180;494;48.744;10.106;2023-09-19T05:53:26;95548.00;;;18.70
30765;BMP180;494;48.744;10.106;2023-09-19T05:55:57;95550.00;;;18.90
30765;BMP180;494;48.744;10.106;2023-09-19T05:58:44;95118.00;;;17.70
30765;BMP180;494;48.744;10.106;2023-09-19T06:01:17;95536.00;;;19.00
30765;BMP180;494;48.744;10.106;2023-09-19T06:03:49;95624.00;;;18.00
30765;BMP180;494;48.744;10.106;2023-09-19T06:06:36;95580.00;;;18.70
30765;BMP180;494;48.744;10.106;2023-09-19T06:09:10;95619.00;;;19.30
30765;BMP180;494;48.744;10.106;2023-09-19T06:11:42;95339.00;;;19.40
30765;BMP180;494;48.744;10.106;2023-09-19T06:14:11;95501.00;;;19.30
30765;BMP180;494;48.744;10.106;2023-09-19T06:16:40;95464.00;;;19.50
30765;BMP180;494;48.744;10.106;2023-09-19T06:19:10;95553.00;;;19.00
30765;BMP180;494;48.744;10.106;2023-09-19T06:21:50;95516.00;;;19.50
30765;BMP180;494;48.744;10.106;2023-09-19T06:24:22;95599.00;;;19.50
30765;BMP180;494;48.744;10.106;2023-09-19T06:26:54;95678.00;;;19.60
30765;BMP180;494;48.744;10.106;2023-09-19T06:29:22;95481.00;;;19.80
30765;BMP180;494;48.744;10.106;2023-09-19T06:31:52;95471.00;;;19.70
30765;BMP180;494;48.744;10.106;2023-09-19T06:34:21;95492.00;;;19.80
30765;BMP180;494;48.744;10.106;2023-09-19T06:36:54;95628.00;;;17.70
30765;BMP180;494;48.744;10.106;2023-09-19T06:39:23;95605.00;;;19.60
30765;BMP180;494;48.744;10.106;2023-09-19T06:41:58;95556.00;;;19.70
30765;BMP180;494;48.744;10.106;2023-09-19T06:44:29;95679.00;;;19.20
30765;BMP180;494;48.744;10.106;2023-09-19T06:47:00;95628.00;;;18.10
30765;BMP180;494;48.744;10.106;2023-09-19T06:49:32;95647.00;;;19.40
30765;BMP180;494;48.744;10.106;2023-09-19T06:52:10;95549.00;;;18.40
30765;BMP180;494;48.744;10.106;2023-09-19T06:54:39;95585.00;;;19.10
30765;BMP180;494;48.744;10.106;2023-09-19T06:57:09;95621.00;;;17.40
30765;BMP180;494;48.744;10.106;2023-09-19T06:59:41;95534.00;;;18.60
30765;BMP180;494;48.744;10.106;2023-09-19T07:02:10;95562.00;;;18.50
30765;BMP180;494;48.744;10.106;2023-09-19T07:04:42;95633.00;;;19.20
30765;BMP180;494;48.744;10.106;2023-09-19T07:07:16;95605.00;;;18.60
30765;BMP180;494;48.744;10.106;2023-09-19T07:09:49;95501.00;;;19.00
30765;BMP180;494;48.744;10.106;2023-09-19T07:12:19;95031.00;;;18.80
30765;BMP180;494;48.744;10.106;2023-09-19T07:14:52;95649.00;;;18.90
30765;BMP180;494;48.744;10.106;2023-09-19T07:17:22;95470.00;;;17.50
30765;BMP180;494;48.744;10.106;2023-09-19T07:19:51;95653.00;;;17.90
30765;BMP180;494;48.744;10.106;2023-09-19T07:22:23;95491.00;;;17.60
30765;BMP180;494;48.744;10.106;2023-09-19T07:24:53;95093.00;;;15.80
30765;BMP180;494;48.744;10.106;2023-09-19T07:27:22;95468.00;;;17.60
30765;BMP180;494;48.744;10.106;2023-09-19T07:29:52;95212.00;;;17.70
30765;BMP180;494;48.744;10.106;2023-09-19T07:32:22;95604.00;;;17.00
30765;BMP180;494;48.744;10.106;2023-09-19T07:34:53;95670.00;;;17.60
30765;BMP180;494;48.744;10.106;2023-09-19T07:37:25;95314.00;;;17.50
30765;BMP180;494;48.744;10.106;2023-09-19T07:40:01;95711.00;;;17.30
30765;BMP180;494;48.744;10.106;2023-09-19T07:42:35;95690.00;;;16.80
30765;BMP180;494;48.744;10.106;2023-09-19T07:45:07;95620.00;;;16.60
30765;BMP180;494;48.744;10.106;2023-09-19T07:47:44;95692.00;;;16.70
30765;BMP180;494;48.744;10.106;2023-09-19T07:50:15;95606.00;;;16.60
30765;BMP180;494;48.744;10.106;2023-09-19T07:52:52;95721.00;;;16.60
30765;BMP180;494;48.744;10.106;2023-09-19T07:55:24;95681.00;;;16.70
30765;BMP180;494;48.744;10.106;2023-09-19T07:58:00;95702.00;;;16.80
30765;BMP180;494;48.744;10.106;2023-09-19T08:00:32;95711.00;;;16.90
30765;BMP180;494;48.744;10.106;2023-09-19T08:03:02;95657.00;;;17.20
30765;BMP180;494;48.744;10.106;2023-09-19T08:05:44;95613.00;;;17.50
30765;BMP180;494;48.744;10.106;2023-09-19T08:08:17;95603.00;;;17.70
30765;BMP180;494;48.744;10.106;2023-09-19T08:10:52;95608.00;;;17.30
30765;BMP180;494;48.744;10.106;2023-09-19T08:13:23;95704.00;;;17.70
30765;BMP180;494;48.744;10.106;2023-09-19T08:15:53;95697.00;;;18.00
30765;BMP180;494;48.744;10.106;2023-09-19T08:18:23;95445.00;;;17.80
30765;BMP180;494;48.744;10.106;2023-09-19T08:20:56;95617.00;;;17.90
30765;BMP180;494;48.744;10.106;2023-09-19T08:23:31;95574.00;;;18.00
30765;BMP180;494;48.744;10.106;2023-09-19T08:26:02;95731.00;;;18.00
30765;BMP180;494;48.744;10.106;2023-09-19T08:28:42;95655.00;;;17.40
30765;BMP180;494;48.744;10.106;2023-09-19T08:31:22;95587.00;;;17.40
30765;BMP180;494;48.744;10.106;2023-09-19T08:33:54;95749.00;;;17.50
30765;BMP180;494;48.744;10.106;2023-09-19T08:36:23;95617.00;;;17.80
30765;BMP180;494;48.744;10.106;2023-09-19T08:38:54;95628.00;;;17.80
30765;BMP180;494;48.744;10.106;2023-09-19T08:41:24;95555.00;;;17.50
30765;BMP180;494;48.744;10.106;2023-09-19T08:43:53;95705.00;;;17.60
30765;BMP180;494;48.744;10.106;2023-09-19T08:46:27;95680.00;;;17.90
30765;BMP180;494;48.744;10.106;2023-09-19T08:49:04;95709.00;;;18.60
30765;BMP180;494;48.744;10.106;2023-09-19T08:51:42;95670.00;;;18.70
30765;BMP180;494;48.744;10.106;2023-09-19T08:54:24;95704.00;;;18.70
30765;BMP180;494;48.744;10.106;2023-09-19T08:56:56;95602.00;;;18.90
30765;BMP180;494;48.744;10.106;2023-09-19T08:59:33;95696.00;;;19.30
30765;BMP180;494;48.744;10.106;2023-09-19T09:02:03;95664.00;;;19.20
30765;BMP180;494;48.744;10.106;2023-09-19T09:04:34;95735.00;;;19.60
30765;BMP180;494;48.744;10.106;2023-09-19T09:07:19;95699.00;;;19.40
30765;BMP180;494;48.744;10.106;2023-09-19T09:09:51;95682.00;;;20.10
30765;BMP180;494;48.744;10.106;2023-09-19T09:12:21;95503.00;;;20.00
30765;BMP180;494;48.744;10.106;2023-09-19T09:14:51;95721.00;;;20.80
30765;BMP180;494;48.744;10.106;2023-09-19T09:17:24;95708.00;;;21.10
30765;BMP180;494;48.744;10.106;2023-09-19T09:19:53;95609.00;;;21.20
30765;BMP180;494;48.744;10.106;2023-09-19T09:22:27;95649.00;;;20.90
30765;BMP180;494;48.744;10.106;2023-09-19T09:24:59;95624.00;;;21.80
30765;BMP180;494;48.744;10.106;2023-09-19T09:27:31;95728.00;;;22.60
30765;BMP180;494;48.744;10.106;2023-09-19T09:30:08;95702.00;;;22.70
30765;BMP180;494;48.744;10.106;2023-09-19T09:32:41;95640.00;;;22.00
30765;BMP180;494;48.744;10.106;2023-09-19T09:35:31;95689.00;;;21.70
30765;BMP180;494;48.744;10.106;2023-09-19T09:38:00;95746.00;;;20.80
30765;BMP180;494;48.744;10.106;2023-09-19T09:40:52;95695.00;;;20.70
30765;BMP180;494;48.744;10.106;2023-09-19T09:43:30;95729.00;;;20.90
30765;BMP180;494;48.744;10.106;2023-09-19T09:46:09;95537.00;;;20.60
30765;BMP180;494;48.744;10.106;2023-09-19T09:49:02;95573.00;;;21.10
30765;BMP180;494;48.744;10.106;2023-09-19T09:51:46;95658.00;;;21.00
30765;BMP180;494;48.744;10.106;2023-09-19T09:54:27;95758.00;;;20.70
30765;BMP180;494;48.744;10.106;2023-09-19T09:57:05;95368.00;;;20.60
30765;BMP180;494;48.744;10.106;2023-09-19T09:59:49;95680.00;;;21.60
30765;BMP180;494;48.744;10.106;2023-09-19T10:02:26;95715.00;;;21.80
30765;BMP180;494;48.744;10.106;2023-09-19T10:05:13;95734.00;;;21.30
30765;BMP180;494;48.744;10.106;2023-09-19T10:07:51;95722.00;;;21.60
30765;BMP180;494;48.744;10.106;2023-09-19T10:10:33;95659.00;;;22.00
30765;BMP180;494;48.744;10.106;2023-09-19T10:13:28;95667.00;;;22.50
30765;BMP180;494;48.744;10.106;2023-09-19T10:16:06;95742.00;;;22.20
30765;BMP180;494;48.744;10.106;2023-09-19T10:18:44;95746.00;;;21.70
30765;BMP180;494;48.744;10.106;2023-09-19T10:21:30;95739.00;;;22.00
30765;BMP180;494;48.744;10.106;2023-09-19T10:24:01;95609.00;;;22.00
30765;BMP180;494;48.744;10.106;2023-09-19T10:26:37;95725.00;;;22.60
30765;BMP180;494;48.744;10.106;2023-09-19T10:29:09;95677.00;;;22.90
30765;BMP180;494;48.744;10.106;2023-09-19T10:31:42;95644.00;;;23.50
30765;BMP180;494;48.744;10.106;2023-09-19T10:34:17;95693.00;;;24.00
30765;BMP180;494;48.744;10.106;2023-09-19T10:36:53;95719.00;;;24.40
30765;BMP180;494;48.744;10.106;2023-09-19T10:39:30;95631.00;;;24.60
30765;BMP180;494;48.744;10.106;2023-09-19T10:42:04;95725.00;;;23.80
30765;BMP180;494;48.744;10.106;2023-09-19T10:44:42;95720.00;;;23.90
30765;BMP180;494;48.744;10.106;2023-09-19T10:47:16;95745.00;;;24.70
30765;BMP180;494;48.744;10.106;2023-09-19T10:49:47;95722.00;;;25.70
30765;BMP180;494;48.744;10.106;2023-09-19T10:52:22;95657.00;;;26.00
30765;BMP180;494;48.744;10.106;2023-09-19T10:54:56;95662.00;;;26.50
30765;BMP180;494;48.744;10.106;2023-09-19T10:57:30;95639.00;;;26.70
30765;BMP180;494;48.744;10.106;2023-09-19T11:00:05;95670.00;;;26.90
30765;BMP180;494;48.744;10.106;2023-09-19T11:03:25;95432.00;;;25.80
30765;BMP180;494;48.744;10.106;2023-09-19T11:06:12;95674.00;;;27.60
30765;BMP180;494;48.744;10.106;2023-09-19T11:08:58;95730.00;;;28.00
30765;BMP180;494;48.744;10.106;2023-09-19T11:11:47;95711.00;;;28.20
30765;BMP180;494;48.744;10.106;2023-09-19T11:14:41;95725.00;;;28.40
30765;BMP180;494;48.744;10.106;2023-09-19T11:17:44;95708.00;;;27.90
30765;BMP180;494;48.744;10.106;2023-09-19T11:20:23;95709.00;;;27.30
30765;BMP180;494;48.744;10.106;2023-09-19T11:23:24;95669.00;;;26.80
30765;BMP180;494;48.744;10.106;2023-09-19T11:25:56;95631.00;;;27.70
30765;BMP180;494;48.744;10.106;2023-09-19T11:28:35;95666.00;;;27.80
30765;BMP180;494;48.744;10.106;2023-09-19T11:31:42;95658.00;;;28.40
30765;BMP180;494;48.744;10.106;2023-09-19T11:38:00;95702.00;;;30.10
30765;BMP180;494;48.744;10.106;2023-09-19T11:40:34;95701.00;;;30.80
30765;BMP180;494;48.744;10.106;2023-09-19T11:43:31;95696.00;;;30.40
30765;BMP180;494;48.744;10.106;2023-09-19T11:46:07;95720.00;;;31.30
30765;BMP180;494;48.744;10.106;2023-09-19T11:48:42;95550.00;;;30.70
30765;BMP180;494;48.744;10.106;2023-09-19T11:51:17;95560.00;;;30.10
30765;BMP180;494;48.744;10.106;2023-09-19T11:53:57;95689.00;;;29.90
30765;BMP180;494;48.744;10.106;2023-09-19T11:56:38;95742.00;;;29.70
30765;BMP180;494;48.744;10.106;2023-09-19T11:59:25;95661.00;;;30.70
30765;BMP180;494;48.744;10.106;2023-09-19T12:02:37;95655.00;;;30.30
30765;BMP180;494;48.744;10.106;2023-09-19T12:05:08;95736.00;;;30.90
30765;BMP180;494;48.744;10.106;2023-09-19T12:08:01;95652.00;;;31.50
30765;BMP180;494;48.744;10.106;2023-09-19T12:10:48;95709.00;;;31.90
30765;BMP180;494;48.744;10.106;2023-09-19T12:13:18;95717.00;;;30.60
30765;BMP180;494;48.744;10.106;2023-09-19T12:15:49;95691.00;;;31.60
30765;BMP180;494;48.744;10.106;2023-09-19T12:18:29;95725.00;;;31.80
30765;BMP180;494;48.744;10.106;2023-09-19T12:21:03;95595.00;;;29.90
30765;BMP180;494;48.744;10.106;2023-09-19T12:23:43;95624.00;;;30.50
30765;BMP180;494;48.744;10.106;2023-09-19T12:26:13;95623.00;;;31.00
30765;BMP180;494;48.744;10.106;2023-09-19T12:28:44;95693.00;;;31.30
30765;BMP180;494;48.744;10.106;2023-09-19T12:31:17;95579.00;;;31.40
30765;BMP180;494;48.744;10.106;2023-09-19T12:33:54;95645.00;;;31.70
30765;BMP180;494;48.744;10.106;2023-09-19T12:36:26;95703.00;;;31.90
30765;BMP180;494;48.744;10.106;2023-09-19T12:39:29;95612.00;;;30.90
30765;BMP180;494;48.744;10.106;2023-09-19T12:42:03;95670.00;;;30.80
30765;BMP180;494;48.744;10.106;2023-09-19T12:44:49;95682.00;;;31.20
30765;BMP180;494;48.744;10.106;2023-09-19T12:47:32;95671.00;;;31.20
30765;BMP180;494;48.744;10.106;2023-09-19T12:50:11;95710.00;;;30.70
30765;BMP180;494;48.744;10.106;2023-09-19T12:52:59;95597.00;;;29.80
30765;BMP180;494;48.744;10.106;2023-09-19T12:55:40;95593.00;;;29.90
30765;BMP180;494;48.744;10.106;2023-09-19T12:58:15;95638.00;;;30.20
30765;BMP180;494;48.744;10.106;2023-09-19T13:01:14;95676.00;;;30.70
30765;BMP180;494;48.744;10.106;2023-09-19T13:04:25;95667.00;;;31.40
30765;BMP180;494;48.744;10.106;2023-09-19T13:06:59;95378.00;;;31.50
30765;BMP180;494;48.744;10.106;2023-09-19T13:09:30;95637.00;;;32.10
30765;BMP180;494;48.744;10.106;2023-09-19T13:12:37;95623.00;;;31.70
30765;BMP180;494;48.744;10.106;2023-09-19T13:15:15;95641.00;;;31.30
30765;BMP180;494;48.744;10.106;2023-09-19T13:17:48;95444.00;;;31.20
30765;BMP180;494;48.744;10.106;2023-09-19T13:20:23;95621.00;;;32.10
30765;BMP180;494;48.744;10.106;2023-09-19T13:23:26;95669.00;;;31.80
30765;BMP180;494;48.744;10.106;2023-09-19T13:26:09;95596.00;;;32.80
30765;BMP180;494;48.744;10.106;2023-09-19T13:28:43;95678.00;;;33.00
30765;BMP180;494;48.744;10.106;2023-09-19T13:31:13;95655.00;;;32.20
30765;BMP180;494;48.744;10.106;2023-09-19T13:33:46;95616.00;;;31.70
30765;BMP180;494;48.744;10.106;2023-09-19T13:36:20;95642.00;;;31.20
30765;BMP180;494;48.744;10.106;2023-09-19T13:38:50;95347.00;;;30.80
30765;BMP180;494;48.744;10.106;2023-09-19T13:41:21;95589.00;;;31.70
30765;BMP180;494;48.744;10.106;2023-09-19T13:43:52;95648.00;;;30.60
30765;BMP180;494;48.744;10.106;2023-09-19T13:46:21;95632.00;;;32.50
30765;BMP180;494;48.744;10.106;2023-09-19T13:48:54;95653.00;;;31.20
30765;BMP180;494;48.744;10.106;2023-09-19T13:51:26;95649.00;;;31.10
30765;BMP180;494;48.744;10.106;2023-09-19T13:53:58;95643.00;;;31.80
30765;BMP180;494;48.744;10.106;2023-09-19T13:56:33;95498.00;;;33.00
30765;BMP180;494;48.744;10.106;2023-09-19T13:59:11;95507.00;;;33.10
30765;BMP180;494;48.744;10.106;2023-09-19T14:01:41;95570.00;;;33.40
30765;BMP180;494;48.744;10.106;2023-09-19T14:04:25;95664.00;;;33.40
30765;BMP180;494;48.744;10.106;2023-09-19T14:06:56;95656.00;;;34.20
30765;BMP180;494;48.744;10.106;2023-09-19T14:09:26;95562.00;;;35.00
30765;BMP180;494;48.744;10.106;2023-09-19T14:12:08;95656.00;;;32.90
30765;BMP180;494;48.744;10.106;2023-09-19T14:15:02;95556.00;;;31.80
30765;BMP180;494;48.744;10.106;2023-09-19T14:17:40;95664.00;;;30.50
30765;BMP180;494;48.744;10.106;2023-09-19T14:20:14;95647.00;;;29.70
30765;BMP180;494;48.744;10.106;2023-09-19T14:22:45;95579.00;;;29.70
30765;BMP180;494;48.744;10.106;2023-09-19T14:25:18;95549.00;;;28.20
30765;BMP180;494;48.744;10.106;2023-09-19T14:28:02;95616.00;;;28.30
30765;BMP180;494;48.744;10.106;2023-09-19T14:30:54;95434.00;;;27.70
30765;BMP180;494;48.744;10.106;2023-09-19T14:33:38;95538.00;;;27.10
30765;BMP180;494;48.744;10.106;2023-09-19T14:36:10;95608.00;;;27.30
30765;BMP180;494;48.744;10.106;2023-09-19T14:38:45;95637.00;;;29.30
30765;BMP180;494;48.744;10.106;2023-09-19T14:41:15;95599.00;;;29.90
30765;BMP180;494;48.744;10.106;2023-09-19T14:43:46;95636.00;;;30.80
30765;BMP180;494;48.744;10.106;2023-09-19T14:46:45;95507.00;;;31.20
30765;BMP180;494;48.744;10.106;2023-09-19T14:49:28;95615.00;;;32.40
30765;BMP180;494;48.744;10.106;2023-09-19T14:51:57;95603.00;;;32.00
30765;BMP180;494;48.744;10.106;2023-09-19T14:54:33;95629.00;;;32.30
30765;BMP180;494;48.744;10.106;2023-09-19T14:57:18;95573.00;;;32.70
30765;BMP180;494;48.744;10.106;2023-09-19T14:59:52;95620.00;;;32.50
30765;BMP180;494;48.744;10.106;2023-09-19T15:02:26;95628.00;;;32.70
30765;BMP180;494;48.744;10.106;2023-09-19T15:05:09;95637.00;;;32.60
30765;BMP180;494;48.744;10.106;2023-09-19T15:07:41;95651.00;;;31.80
30765;BMP180;494;48.744;10.106;2023-09-19T15:10:18;95262.00;;;30.80
30765;BMP180;494;48.744;10.106;2023-09-19T15:12:52;95561.00;;;30.60
30765;BMP180;494;48.744;10.106;2023-09-19T15:15:21;95295.00;;;30.10
30765;BMP180;494;48.744;10.106;2023-09-19T15:18:07;95670.00;;;29.50
30765;BMP180;494;48.744;10.106;2023-09-19T15:20:42;95575.00;;;28.80
30765;BMP180;494;48.744;10.106;2023-09-19T15:23:19;95610.00;;;28.80
30765;BMP180;494;48.744;10.106;2023-09-19T15:25:59;95518.00;;;28.10
30765;BMP180;494;48.744;10.106;2023-09-19T15:28:57;95558.00;;;28.20
30765;BMP180;494;48.744;10.106;2023-09-19T15:31:33;95623.00;;;28.80
30765;BMP180;494;48.744;10.106;2023-09-19T15:34:20;95634.00;;;29.10
30765;BMP180;494;48.744;10.106;2023-09-19T15:36:50;95587.00;;;28.70
30765;BMP180;494;48.744;10.106;2023-09-19T15:39:21;95516.00;;;28.60
30765;BMP180;494;48.744;10.106;2023-09-19T15:41:50;95630.00;;;28.90
30765;BMP180;494;48.744;10.106;2023-09-19T15:44:34;95637.00;;;28.90
30765;BMP180;494;48.744;10.106;2023-09-19T15:47:08;95620.00;;;28.60
30765;BMP180;494;48.744;10.106;2023-09-19T15:49:58;95572.00;;;28.20
30765;BMP180;494;48.744;10.106;2023-09-19T15:52:28;95636.00;;;28.70
30765;BMP180;494;48.744;10.106;2023-09-19T15:55:04;95390.00;;;29.00
30765;BMP180;494;48.744;10.106;2023-09-19T15:57:34;95627.00;;;29.30
30765;BMP180;494;48.744;10.106;2023-09-19T16:00:10;95642.00;;;29.50
30765;BMP180;494;48.744;10.106;2023-09-19T16:02:53;95617.00;;;29.40
30765;BMP180;494;48.744;10.106;2023-09-19T16:06:00;95567.00;;;28.60
30765;BMP180;494;48.744;10.106;2023-09-19T16:08:46;95321.00;;;27.80
30765;BMP180;494;48.744;10.106;2023-09-19T16:11:27;95433.00;;;27.30
30765;BMP180;494;48.744;10.106;2023-09-19T16:14:13;95622.00;;;26.70
30765;BMP180;494;48.744;10.106;2023-09-19T16:17:27;95607.00;;;26.60
30765;BMP180;494;48.744;10.106;2023-09-19T16:20:13;95616.00;;;26.60
30765;BMP180;494;48.744;10.106;2023-09-19T16:23:30;95338.00;;;26.10
30765;BMP180;494;48.744;10.106;2023-09-19T16:26:18;95529.00;;;25.80
30765;BMP180;494;48.744;10.106;2023-09-19T16:29:03;95614.00;;;25.90
30765;BMP180;494;48.744;10.106;2023-09-19T16:31:47;95417.00;;;25.60
30765;BMP180;494;48.744;10.106;2023-09-19T16:34:17;95643.00;;;25.40
30765;BMP180;494;48.744;10.106;2023-09-19T16:36:49;95246.00;;;24.90
30765;BMP180;494;48.744;10.106;2023-09-19T16:40:09;95617.00;;;25.00
30765;BMP180;494;48.744;10.106;2023-09-19T16:42:41;95495.00;;;24.80
30765;BMP180;494;48.744;10.106;2023-09-19T16:45:25;95454.00;;;24.10
30765;BMP180;494;48.744;10.106;2023-09-19T16:48:09;95427.00;;;24.00
30765;BMP180;494;48.744;10.106;2023-09-19T16:50:54;95599.00;;;22.90
30765;BMP180;494;48.744;10.106;2023-09-19T16:53:41;95567.00;;;22.90
30765;BMP180;494;48.744;10.106;2023-09-19T16:56:29;95633.00;;;22.40
30765;BMP180;494;48.744;10.106;2023-09-19T16:59:13;95653.00;;;22.40
30765;BMP180;494;48.744;10.106;2023-09-19T17:01:59;95578.00;;;22.20
30765;BMP180;494;48.744;10.106;2023-09-19T17:04:37;95293.00;;;21.50
30765;BMP180;494;48.744;10.106;2023-09-19T17:07:06;95618.00;;;21.90
30765;BMP180;494;48.744;10.106;2023-09-19T17:10:01;95537.00;;;21.60
30765;BMP180;494;48.744;10.106;2023-09-19T17:12:55;95601.00;;;20.90
30765;BMP180;494;48.744;10.106;2023-09-19T17:15:25;95564.00;;;21.20
30765;BMP180;494;48.744;10.106;2023-09-19T17:17:54;95478.00;;;20.90
30765;BMP180;494;48.744;10.106;2023-09-19T17:20:30;95531.00;;;20.80
30765;BMP180;494;48.744;10.106;2023-09-19T17:27:42;95618.00;;;19.80
30765;BMP180;494;48.744;10.106;2023-09-19T17:30:18;95434.00;;;19.60
30765;BMP180;494;48.744;10.106;2023-09-19T17:32:49;95440.00;;;19.70
30765;BMP180;494;48.744;10.106;2023-09-19T17:35:20;95631.00;;;19.90
30765;BMP180;494;48.744;10.106;2023-09-19T17:38:04;95525.00;;;19.80
30765;BMP180;494;48.744;10.106;2023-09-19T17:41:05;95441.00;;;19.40
30765;BMP180;494;48.744;10.106;2023-09-19T17:44:19;95632.00;;;19.60
30765;BMP180;494;48.744;10.106;2023-09-19T17:51:06;95512.00;;;18.00
30765;BMP180;494;48.744;10.106;2023-09-19T17:53:54;95293.00;;;19.00
30765;BMP180;494;48.744;10.106;2023-09-19T17:56:52;95647.00;;;18.30
30765;BMP180;494;48.744;10.106;2023-09-19T17:59:28;95639.00;;;18.70
30765;BMP180;494;48.744;10.106;2023-09-19T18:02:20;95722.00;;;17.40
30765;BMP180;494;48.744;10.106;2023-09-19T18:04:57;95197.00;;;18.40
30765;BMP180;494;48.744;10.106;2023-09-19T18:15:21;95664.00;;;18.20
30765;BMP180;494;48.744;10.106;2023-09-19T18:17:58;95791.00;;;18.10
30765;BMP180;494;48.744;10.106;2023-09-19T18:20:34;95567.00;;;18.00
30765;BMP180;494;48.744;10.106;2023-09-19T18:23:20;95400.00;;;17.90
30765;BMP180;494;48.744;10.106;2023-09-19T18:26:13;95721.00;;;18.00
30765;BMP180;494;48.744;10.106;2023-09-19T18:28:46;95741.00;;;16.00
30765;BMP180;494;48.744;10.106;2023-09-19T18:31:27;95708.00;;;18.20
30765;BMP180;494;48.744;10.106;2023-09-19T18:34:34;95471.00;;;18.00
30765;BMP180;494;48.744;10.106;2023-09-19T18:43:18;95605.00;;;16.50
30765;BMP180;494;48.744;10.106;2023-09-19T18:45:57;95662.00;;;17.80
30765;BMP180;494;48.744;10.106;2023-09-19T18:48:32;95648.00;;;16.10